createdAt,value
2023-05-11T00:00:36.102Z,4.50
2023-05-11T00:03:12.835Z,4.50
2023-05-11T00:05:39.580Z,3.90
2023-05-11T00:08:06.210Z,4.00
2023-05-11T00:10:32.790Z,5.10
2023-05-11T00:12:59.306Z,4.70
2023-05-11T00:15:25.901Z,4.30
2023-05-11T00:17:52.645Z,4.40
2023-05-11T00:20:20.862Z,4.00
2023-05-11T00:22:47.575Z,4.50
2023-05-11T00:25:14.170Z,4.40
2023-05-11T00:27:45.122Z,4.60
2023-05-11T00:30:16.874Z,4.60
2023-05-11T00:32:44.590Z,4.10
2023-05-11T00:35:12.498Z,3.50
2023-05-11T00:37:40.927Z,3.70
2023-05-11T00:40:07.945Z,4.30
2023-05-11T00:42:34.747Z,4.30
2023-05-11T00:45:01.974Z,3.90
2023-05-11T00:47:29.609Z,4.20
2023-05-11T00:49:57.479Z,4.20
2023-05-11T00:52:24.278Z,4.10
2023-05-11T00:54:50.998Z,4.70
2023-05-11T00:57:17.964Z,4.20
2023-05-11T00:59:44.516Z,4.00
2023-05-11T01:02:11.269Z,4.40
2023-05-11T01:04:38.389Z,5.20
2023-05-11T01:07:23.428Z,4.20
2023-05-11T01:09:53.083Z,4.50
2023-05-11T01:12:57.425Z,4.50
2023-05-11T01:15:44.379Z,4.00
2023-05-11T01:18:36.462Z,4.10
2023-05-11T01:21:10.391Z,4.80
2023-05-11T01:24:05.432Z,4.50
2023-05-11T01:26:54.707Z,4.30
2023-05-11T01:29:33.635Z,4.30
2023-05-11T01:32:05.885Z,4.50
2023-05-11T01:34:38.993Z,4.60
2023-05-11T01:37:20.696Z,4.90
2023-05-11T01:39:57.197Z,4.70
2023-05-11T01:42:29.565Z,4.10
2023-05-11T01:44:58.995Z,4.90
2023-05-11T01:47:28.554Z,4.70
2023-05-11T01:49:57.954Z,3.80
2023-05-11T01:52:26.556Z,5.30
2023-05-11T01:54:55.540Z,4.70
2023-05-11T01:57:23.911Z,4.70
2023-05-11T01:59:53.090Z,4.10
2023-05-11T02:02:19.790Z,4.60
2023-05-11T02:04:47.311Z,4.10
2023-05-11T02:07:16.701Z,4.70
2023-05-11T02:09:44.377Z,4.50
2023-05-11T02:12:13.392Z,4.30
2023-05-11T02:14:41.467Z,4.50
2023-05-11T02:17:08.823Z,4.60
2023-05-11T02:19:37.429Z,4.30
2023-05-11T02:22:05.831Z,4.00
2023-05-11T02:24:33.484Z,4.20
2023-05-11T02:27:00.203Z,3.80
2023-05-11T02:29:27.306Z,4.20
2023-05-11T02:32:03.114Z,4.20
2023-05-11T02:37:05.174Z,4.50
2023-05-11T02:39:36.078Z,4.10
2023-05-11T02:42:21.323Z,4.30
2023-05-11T02:44:56.721Z,4.30
2023-05-11T02:47:27.918Z,4.20
2023-05-11T02:49:58.444Z,4.20
2023-05-11T02:52:28.870Z,5.40
2023-05-11T02:54:57.109Z,3.90
2023-05-11T02:57:24.310Z,4.50
2023-05-11T02:59:51.377Z,4.10
2023-05-11T03:02:19.375Z,5.00
2023-05-11T03:04:46.245Z,4.70
2023-05-11T03:07:12.986Z,5.10
2023-05-11T03:09:39.717Z,5.40
2023-05-11T03:12:07.062Z,4.70
2023-05-11T03:14:36.102Z,4.80
2023-05-11T03:17:02.904Z,5.60
2023-05-11T03:19:31.266Z,5.10
2023-05-11T03:22:00.023Z,4.30
2023-05-11T03:24:26.987Z,5.20
2023-05-11T03:26:55.328Z,4.70
2023-05-11T03:29:25.287Z,4.60
2023-05-11T03:31:52.044Z,4.20
2023-05-11T03:34:19.104Z,4.80
2023-05-11T03:36:48.545Z,4.80
2023-05-11T03:39:17.127Z,4.30
2023-05-11T03:41:48.773Z,4.50
2023-05-11T03:44:21.193Z,4.30
2023-05-11T03:46:49.899Z,4.70
2023-05-11T03:49:17.463Z,4.70
2023-05-11T03:51:45.384Z,4.40
2023-05-11T03:54:12.406Z,4.30
2023-05-11T03:56:39.636Z,4.10
2023-05-11T03:59:07.795Z,4.90
2023-05-11T04:01:35.713Z,4.80
2023-05-11T04:04:02.648Z,4.90
2023-05-11T04:06:29.324Z,4.70
2023-05-11T04:09:04.788Z,4.90
2023-05-11T04:11:35.803Z,4.80
2023-05-11T04:14:02.415Z,5.10
2023-05-11T04:16:29.148Z,4.30
2023-05-11T04:18:55.959Z,4.50
2023-05-11T04:21:23.091Z,5.30
2023-05-11T04:23:49.677Z,4.80
2023-05-11T04:26:17.674Z,4.80
2023-05-11T04:28:44.312Z,4.50
2023-05-11T04:31:10.845Z,5.20
2023-05-11T04:33:37.746Z,4.90
2023-05-11T04:36:05.479Z,5.40
2023-05-11T04:38:32.193Z,5.40
2023-05-11T04:41:03.452Z,5.30
2023-05-11T04:43:30.549Z,5.50
2023-05-11T04:45:58.500Z,5.60
2023-05-11T04:48:27.225Z,5.80
2023-05-11T04:50:54.720Z,5.20
2023-05-11T04:53:23.208Z,5.90
2023-05-11T04:55:50.055Z,5.10
2023-05-11T04:58:16.629Z,6.00
2023-05-11T05:00:43.184Z,5.50
2023-05-11T05:03:09.874Z,5.00
2023-05-11T05:05:36.400Z,5.80
2023-05-11T05:08:03.173Z,5.70
2023-05-11T05:10:29.872Z,5.70
2023-05-11T05:12:57.652Z,4.60
2023-05-11T05:15:24.758Z,5.50
2023-05-11T05:17:51.514Z,5.50
2023-05-11T05:20:18.331Z,5.70
2023-05-11T05:22:46.388Z,5.20
2023-05-11T05:25:13.038Z,5.40
2023-05-11T05:27:39.816Z,5.90
2023-05-11T05:30:15.770Z,5.50
2023-05-11T05:32:42.722Z,5.10
2023-05-11T05:35:09.397Z,5.30
2023-05-11T05:37:36.936Z,4.80
2023-05-11T05:40:05.026Z,6.20
2023-05-11T05:42:33.743Z,5.20
2023-05-11T05:45:00.511Z,4.90
2023-05-11T05:47:27.320Z,5.90
2023-05-11T05:49:54.135Z,4.20
2023-05-11T05:52:21.070Z,4.80
2023-05-11T05:54:48.297Z,4.20
2023-05-11T05:57:15.799Z,4.30
2023-05-11T05:59:43.840Z,5.20
2023-05-11T06:02:12.730Z,4.00
2023-05-11T06:04:40.136Z,4.50
2023-05-11T06:07:07.108Z,4.60
2023-05-11T06:09:34.118Z,4.10
2023-05-11T06:12:01.153Z,4.10
2023-05-11T06:14:27.740Z,4.90
2023-05-11T06:16:54.553Z,4.30
2023-05-11T06:19:21.377Z,4.40
2023-05-11T06:21:48.008Z,4.30
2023-05-11T06:24:14.948Z,3.80
2023-05-11T06:26:42.534Z,4.30
2023-05-11T06:29:12.249Z,4.80
2023-05-11T06:31:39.247Z,4.80
2023-05-11T06:34:08.507Z,4.20
2023-05-11T06:36:35.553Z,3.50
2023-05-11T06:39:02.294Z,3.50
2023-05-11T06:41:28.856Z,4.30
2023-05-11T06:43:55.340Z,3.90
2023-05-11T06:46:36.121Z,3.90
2023-05-11T06:49:03.024Z,3.50
2023-05-11T06:51:30.141Z,3.80
2023-05-11T06:53:56.763Z,3.70
2023-05-11T06:56:23.272Z,4.20
2023-05-11T06:58:49.952Z,3.80
2023-05-11T07:01:16.582Z,3.90
2023-05-11T07:03:43.100Z,4.10
2023-05-11T07:06:09.671Z,4.20
2023-05-11T07:08:36.235Z,4.90
2023-05-11T07:11:02.959Z,3.90
2023-05-11T07:13:29.629Z,4.00
2023-05-11T07:15:57.761Z,4.00
2023-05-11T07:18:24.854Z,4.00
2023-05-11T07:20:51.397Z,3.80
2023-05-11T07:23:17.961Z,4.10
2023-05-11T07:25:44.523Z,3.20
2023-05-11T07:28:11.120Z,2.80
2023-05-11T07:30:37.746Z,3.50
2023-05-11T07:33:04.478Z,4.10
2023-05-11T07:35:32.262Z,2.90
2023-05-11T07:37:58.760Z,2.90
2023-05-11T07:40:25.468Z,3.90
2023-05-11T07:42:53.418Z,4.30
2023-05-11T07:45:20.074Z,4.00
2023-05-11T07:47:46.686Z,3.60
2023-05-11T07:50:13.605Z,3.00
2023-05-11T07:52:40.677Z,3.50
2023-05-11T07:55:07.647Z,2.70
2023-05-11T07:57:34.318Z,3.10
2023-05-11T08:00:01.225Z,3.50
2023-05-11T08:02:28.260Z,3.80
2023-05-11T08:04:54.877Z,3.50
2023-05-11T08:07:21.417Z,3.90
2023-05-11T08:09:47.975Z,3.50
2023-05-11T08:12:14.651Z,3.00
2023-05-11T08:14:42.584Z,3.50
2023-05-11T08:17:09.468Z,4.00
2023-05-11T08:19:36.466Z,3.50
2023-05-11T08:22:03.170Z,3.70
2023-05-11T08:24:29.698Z,3.60
2023-05-11T08:26:56.672Z,3.90
2023-05-11T08:29:26.702Z,2.90
2023-05-11T08:31:53.590Z,3.80
2023-05-11T08:34:20.528Z,4.10
2023-05-11T08:36:47.214Z,3.40
2023-05-11T08:39:14.426Z,3.30
2023-05-11T08:41:41.676Z,3.70
2023-05-11T08:44:10.149Z,3.40
2023-05-11T08:46:39.751Z,3.20
2023-05-11T08:49:07.644Z,2.50
2023-05-11T08:51:34.329Z,3.10
2023-05-11T08:54:00.917Z,2.70
2023-05-11T08:56:29.350Z,3.80
2023-05-11T08:58:56.987Z,3.20
2023-05-11T09:01:28.503Z,3.50
2023-05-11T09:03:56.492Z,2.60
2023-05-11T09:06:24.057Z,2.10
2023-05-11T09:08:50.705Z,2.00
2023-05-11T09:11:17.531Z,2.10
2023-05-11T09:13:44.237Z,2.80
2023-05-11T09:16:23.506Z,2.40
2023-05-11T09:19:03.711Z,2.50
2023-05-11T09:21:31.478Z,2.50
2023-05-11T09:23:58.650Z,2.80
2023-05-11T09:26:28.976Z,2.10
2023-05-11T09:31:43.800Z,1.80
2023-05-11T09:34:21.414Z,1.70
2023-05-11T09:36:50.668Z,2.10
2023-05-11T09:39:35.036Z,1.80
2023-05-11T09:42:21.319Z,1.90
2023-05-11T09:44:48.103Z,1.40
2023-05-11T09:47:21.549Z,1.50
2023-05-11T09:49:48.289Z,1.90
2023-05-11T09:52:17.674Z,1.90
2023-05-11T09:54:47.117Z,1.90
2023-05-11T09:57:27.063Z,2.20
2023-05-11T09:59:55.945Z,2.30
2023-05-11T10:02:22.887Z,1.60
2023-05-11T10:04:51.106Z,2.00
2023-05-11T10:07:30.842Z,2.10
2023-05-11T10:10:02.604Z,1.90
2023-05-11T10:12:32.105Z,1.80
2023-05-11T10:15:03.082Z,2.50
2023-05-11T10:17:30.554Z,2.00
2023-05-11T10:19:58.314Z,2.30
2023-05-11T10:22:26.777Z,2.10
2023-05-11T10:24:57.185Z,2.50
2023-05-11T10:27:24.877Z,2.00
2023-05-11T10:29:51.775Z,2.40
2023-05-11T10:32:19.883Z,2.30
2023-05-11T10:34:47.284Z,2.10
2023-05-11T10:37:15.628Z,1.70
2023-05-11T10:39:44.246Z,2.00
2023-05-11T10:42:41.911Z,2.30
2023-05-11T10:45:44.665Z,2.30
2023-05-11T10:48:40.162Z,2.50
2023-05-11T10:51:25.033Z,1.90
2023-05-11T10:54:20.756Z,2.50
2023-05-11T10:57:06.514Z,1.80
2023-05-11T10:59:50.873Z,2.10
2023-05-11T11:02:18.335Z,2.50
2023-05-11T11:04:50.006Z,1.80
2023-05-11T11:07:19.061Z,2.80
2023-05-11T11:10:00.717Z,2.20
2023-05-11T11:12:29.005Z,2.10
2023-05-11T11:15:07.373Z,1.70
2023-05-11T11:17:35.365Z,1.90
2023-05-11T11:20:06.800Z,1.60
2023-05-11T11:22:40.617Z,1.30
2023-05-11T11:25:09.098Z,1.50
2023-05-11T11:27:44.232Z,1.40
2023-05-11T11:30:22.727Z,1.50
2023-05-11T11:32:52.256Z,1.50
2023-05-11T11:35:41.851Z,1.30
2023-05-11T11:38:13.292Z,1.20
2023-05-11T11:40:51.430Z,1.10
2023-05-11T11:43:24.967Z,1.30
2023-05-11T11:45:54.556Z,1.50
2023-05-11T11:48:28.350Z,1.10
2023-05-11T11:51:07.820Z,1.10
2023-05-11T11:53:37.275Z,1.30
2023-05-11T11:56:04.713Z,1.20
2023-05-11T11:58:40.415Z,1.00
2023-05-11T12:03:39.148Z,1.20
2023-05-11T12:06:07.518Z,1.10
2023-05-11T12:08:35.565Z,1.20
2023-05-11T12:11:03.630Z,1.10
2023-05-11T12:13:32.874Z,1.20
2023-05-11T12:16:09.855Z,1.40
2023-05-11T12:18:36.583Z,1.10
2023-05-11T12:21:03.336Z,1.30
2023-05-11T12:23:30.348Z,1.40
2023-05-11T12:26:03.901Z,1.00
2023-05-11T12:28:30.675Z,1.10
2023-05-11T12:30:59.107Z,1.60
2023-05-11T12:33:27.660Z,1.20
2023-05-11T12:35:56.092Z,1.20
2023-05-11T12:38:22.774Z,1.50
2023-05-11T12:40:52.734Z,1.20
2023-05-11T12:43:21.746Z,1.20
2023-05-11T12:45:48.812Z,1.30
2023-05-11T12:48:16.133Z,1.10
2023-05-11T12:50:45.298Z,2.40
2023-05-11T12:53:16.874Z,1.10
2023-05-11T12:55:44.288Z,1.10
2023-05-11T12:58:11.957Z,1.40
2023-05-11T13:00:55.753Z,1.50
2023-05-11T13:03:25.834Z,1.00
2023-05-11T13:06:07.287Z,0.80
2023-05-11T13:08:38.608Z,1.30
2023-05-11T13:11:26.183Z,1.30
2023-05-11T13:13:54.511Z,1.10
2023-05-11T13:16:28.787Z,1.20
2023-05-11T13:18:59.679Z,1.30
2023-05-11T13:21:28.505Z,1.40
2023-05-11T13:23:55.688Z,1.20
2023-05-11T13:26:24.181Z,1.90
2023-05-11T13:29:02.212Z,2.50
2023-05-11T13:32:03.347Z,1.10
2023-05-11T13:34:30.060Z,1.70
2023-05-11T13:36:56.568Z,1.10
2023-05-11T13:39:23.202Z,1.20
2023-05-11T13:41:50.365Z,1.90
2023-05-11T13:44:16.972Z,1.80
2023-05-11T13:46:43.628Z,1.80
2023-05-11T13:49:10.750Z,1.30
2023-05-11T13:51:37.236Z,1.80
2023-05-11T13:54:03.985Z,1.00
2023-05-11T13:56:30.865Z,1.90
2023-05-11T13:58:59.777Z,1.20
2023-05-11T14:01:26.868Z,1.40
2023-05-11T14:03:54.207Z,1.50
2023-05-11T14:06:22.833Z,1.00
2023-05-11T14:08:49.603Z,0.90
2023-05-11T14:11:16.395Z,1.00
2023-05-11T14:13:42.975Z,1.10
2023-05-11T14:16:09.617Z,1.40
2023-05-11T14:18:36.832Z,1.10
2023-05-11T14:21:03.535Z,0.90
2023-05-11T14:23:30.103Z,1.10
2023-05-11T14:25:56.641Z,3.10
2023-05-11T14:28:23.360Z,1.40
2023-05-11T14:30:49.990Z,1.20
2023-05-11T14:33:16.752Z,1.10
2023-05-11T14:35:43.388Z,1.10
2023-05-11T14:38:10.458Z,1.30
2023-05-11T14:40:36.993Z,1.10
2023-05-11T14:43:03.730Z,1.20
2023-05-11T14:45:30.288Z,1.20
2023-05-11T14:47:57.140Z,1.30
2023-05-11T14:50:23.784Z,1.30
2023-05-11T14:52:50.436Z,2.10
2023-05-11T14:55:17.345Z,1.30
2023-05-11T14:57:44.206Z,1.50
2023-05-11T15:00:12.233Z,1.20
2023-05-11T15:02:38.878Z,1.40
2023-05-11T15:05:06.223Z,1.10
2023-05-11T15:07:32.943Z,1.30
2023-05-11T15:10:01.347Z,1.00
2023-05-11T15:12:28.718Z,1.00
2023-05-11T15:14:55.834Z,1.40
2023-05-11T15:17:22.435Z,1.20
2023-05-11T15:19:49.085Z,1.20
2023-05-11T15:22:16.883Z,1.30
2023-05-11T15:24:43.544Z,1.40
2023-05-11T15:27:10.262Z,1.60
2023-05-11T15:29:36.866Z,1.60
2023-05-11T15:32:03.864Z,1.80
2023-05-11T15:34:30.604Z,1.40
2023-05-11T15:36:58.834Z,1.50
2023-05-11T15:39:25.466Z,2.00
2023-05-11T15:41:52.133Z,2.00
2023-05-11T15:44:20.237Z,1.80
2023-05-11T15:46:47.671Z,2.10
2023-05-11T15:49:15.220Z,2.20
2023-05-11T15:51:41.737Z,1.40
2023-05-11T15:54:08.427Z,2.20
2023-05-11T15:56:34.967Z,1.40
2023-05-11T15:59:01.601Z,1.90
2023-05-11T16:01:28.404Z,1.70
2023-05-11T16:03:55.975Z,2.10
2023-05-11T16:06:22.535Z,1.50
2023-05-11T16:08:49.063Z,1.80
2023-05-11T16:11:15.558Z,2.90
2023-05-11T16:13:42.039Z,1.90
2023-05-11T16:16:08.551Z,1.50
2023-05-11T16:18:35.336Z,1.80
2023-05-11T16:21:03.530Z,1.40
2023-05-11T16:23:30.196Z,1.80
2023-05-11T16:25:56.794Z,2.00
2023-05-11T16:28:24.638Z,1.90
2023-05-11T16:30:51.522Z,2.10
2023-05-11T16:33:19.385Z,2.00
2023-05-11T16:35:46.944Z,1.60
2023-05-11T16:38:18.270Z,1.90
2023-05-11T16:40:47.407Z,1.60
2023-05-11T16:43:18.430Z,1.40
2023-05-11T16:45:45.775Z,2.00
2023-05-11T16:48:12.489Z,1.90
2023-05-11T16:50:39.090Z,2.10
2023-05-11T16:53:06.726Z,2.30
2023-05-11T16:55:34.090Z,1.70
2023-05-11T16:58:01.557Z,1.60
2023-05-11T17:00:28.562Z,2.20
2023-05-11T17:02:55.280Z,1.70
2023-05-11T17:05:22.584Z,2.00
2023-05-11T17:07:49.285Z,3.10
2023-05-11T17:10:16.441Z,1.90
2023-05-11T17:12:43.078Z,2.10
2023-05-11T17:15:10.300Z,1.70
2023-05-11T17:17:37.301Z,1.90
2023-05-11T17:20:07.264Z,2.10
2023-05-11T17:22:34.336Z,2.10
2023-05-11T17:25:03.202Z,1.70
2023-05-11T17:27:31.300Z,2.00
2023-05-11T17:29:57.889Z,1.90
2023-05-11T17:32:24.677Z,1.90
2023-05-11T17:34:51.300Z,2.20
2023-05-11T17:37:30.693Z,2.50
2023-05-11T17:39:59.385Z,2.30
2023-05-11T17:42:26.308Z,2.70
2023-05-11T17:44:53.033Z,3.10
2023-05-11T17:47:19.612Z,3.40
2023-05-11T17:49:46.218Z,3.90
2023-05-11T17:52:12.983Z,3.50
2023-05-11T17:54:39.467Z,4.10
2023-05-11T17:57:06.025Z,3.40
2023-05-11T17:59:33.138Z,5.20
2023-05-11T18:02:00.037Z,2.50
2023-05-11T18:04:27.058Z,3.10
2023-05-11T18:06:53.593Z,2.30
2023-05-11T18:09:20.271Z,3.20
2023-05-11T18:11:46.810Z,3.90
2023-05-11T18:14:13.523Z,4.20
2023-05-11T18:16:40.449Z,3.20
2023-05-11T18:19:07.006Z,3.40
2023-05-11T18:21:34.538Z,4.10
2023-05-11T18:24:01.814Z,3.90
2023-05-11T18:26:30.957Z,3.60
2023-05-11T18:28:58.621Z,4.10
2023-05-11T18:31:25.550Z,3.80
2023-05-11T18:33:52.297Z,3.30
2023-05-11T18:36:19.148Z,3.30
2023-05-11T18:38:48.372Z,2.90
2023-05-11T18:41:15.423Z,3.30
2023-05-11T18:43:43.673Z,2.80
2023-05-11T18:46:10.683Z,3.00
2023-05-11T18:48:38.439Z,4.90
2023-05-11T18:51:05.710Z,2.60
2023-05-11T18:53:33.819Z,4.10
2023-05-11T18:56:00.381Z,3.70
2023-05-11T18:58:26.871Z,3.80
2023-05-11T19:00:53.439Z,3.60
2023-05-11T19:03:21.266Z,4.10
2023-05-11T19:05:48.924Z,3.30
2023-05-11T19:08:15.996Z,3.90
2023-05-11T19:10:44.514Z,7.40
2023-05-11T19:13:12.561Z,5.00
2023-05-11T19:15:39.620Z,4.10
2023-05-11T19:18:06.322Z,4.70
2023-05-11T19:20:34.061Z,4.40
2023-05-11T19:23:00.748Z,4.40
2023-05-11T19:25:27.798Z,4.00
2023-05-11T19:27:56.405Z,4.00
2023-05-11T19:30:24.080Z,5.20
2023-05-11T19:32:50.869Z,4.80
2023-05-11T19:35:18.451Z,4.30
2023-05-11T19:37:49.846Z,4.70
2023-05-11T19:42:46.193Z,3.90
2023-05-11T19:45:16.384Z,3.30
2023-05-11T19:47:43.069Z,3.80
2023-05-11T19:50:10.470Z,3.50
2023-05-11T19:52:37.915Z,3.60
2023-05-11T19:55:05.080Z,4.10
2023-05-11T19:57:36.494Z,4.00
2023-05-11T20:00:04.816Z,3.50
2023-05-11T20:02:31.703Z,4.10
2023-05-11T20:04:59.082Z,4.90
2023-05-11T20:07:26.940Z,4.50
2023-05-11T20:09:54.320Z,4.60
2023-05-11T20:12:22.126Z,4.20
2023-05-11T20:14:49.347Z,4.90
2023-05-11T20:17:16.461Z,4.90
2023-05-11T20:19:43.119Z,5.50
2023-05-11T20:22:09.807Z,4.90
2023-05-11T20:24:36.434Z,4.00
2023-05-11T20:27:08.734Z,4.10
2023-05-11T20:29:35.747Z,5.20
2023-05-11T20:32:02.783Z,4.50
2023-05-11T20:34:29.640Z,4.80
2023-05-11T20:36:56.213Z,5.50
2023-05-11T20:39:24.182Z,4.30
2023-05-11T20:41:50.838Z,4.30
2023-05-11T20:44:17.863Z,4.00
2023-05-11T20:46:46.558Z,4.00
2023-05-11T20:49:18.125Z,4.10
2023-05-11T20:51:51.421Z,3.70
2023-05-11T20:54:18.564Z,3.60
2023-05-11T20:56:45.488Z,3.50
2023-05-11T21:00:03.596Z,3.80
2023-05-11T21:01:59.692Z,3.80
2023-05-11T21:04:27.036Z,4.10
2023-05-11T21:06:54.652Z,3.20
2023-05-11T21:09:21.227Z,4.00
2023-05-11T21:11:48.252Z,3.80
2023-05-11T21:14:14.914Z,4.30
2023-05-11T21:16:41.626Z,4.20
2023-05-11T21:19:08.377Z,3.60
2023-05-11T21:21:35.518Z,3.80
2023-05-11T21:24:05.486Z,3.50
2023-05-11T21:26:32.057Z,4.30
2023-05-11T21:28:58.640Z,4.30
2023-05-11T21:31:25.313Z,3.60
2023-05-11T21:33:52.080Z,5.00
2023-05-11T21:36:18.801Z,4.00
2023-05-11T21:38:45.365Z,3.90
2023-05-11T21:41:11.929Z,4.00
2023-05-11T21:43:38.548Z,4.20
2023-05-11T21:46:05.650Z,4.30
2023-05-11T21:48:32.292Z,5.00
2023-05-11T21:50:58.853Z,4.00
2023-05-11T21:53:25.904Z,4.00
2023-05-11T21:55:52.420Z,4.40
2023-05-11T21:58:19.031Z,4.70
2023-05-11T22:00:45.922Z,4.60
2023-05-11T22:03:12.712Z,4.70
2023-05-11T22:05:39.373Z,4.10
2023-05-11T22:08:14.229Z,4.20
2023-05-11T22:10:42.612Z,3.80
2023-05-11T22:13:09.191Z,4.40
2023-05-11T22:15:35.790Z,3.90
2023-05-11T22:18:04.716Z,4.50
2023-05-11T22:20:31.414Z,4.50
2023-05-11T22:22:58.491Z,4.10
2023-05-11T22:25:25.086Z,4.50
2023-05-11T22:27:52.022Z,4.20
2023-05-11T22:30:20.549Z,4.20
2023-05-11T22:32:47.436Z,4.60
2023-05-11T22:35:14.078Z,4.30
2023-05-11T22:37:40.658Z,4.50
2023-05-11T22:40:08.106Z,4.30
2023-05-11T22:42:34.853Z,4.20
2023-05-11T22:45:01.554Z,4.30
2023-05-11T22:47:28.699Z,4.00
2023-05-11T22:49:55.268Z,4.90
2023-05-11T22:52:22.083Z,4.60
2023-05-11T22:54:53.957Z,4.00
2023-05-11T22:57:23.256Z,4.10
2023-05-11T22:59:50.013Z,4.10
2023-05-11T23:02:16.574Z,4.40
2023-05-11T23:04:43.687Z,4.10
2023-05-11T23:07:12.015Z,4.70
2023-05-11T23:09:38.579Z,4.30
2023-05-11T23:12:05.499Z,4.60
2023-05-11T23:14:32.007Z,5.00
2023-05-11T23:16:58.569Z,4.50
2023-05-11T23:19:25.205Z,4.60
2023-05-11T23:21:51.874Z,4.50
2023-05-11T23:24:18.593Z,4.20
2023-05-11T23:26:45.150Z,5.10
2023-05-11T23:29:11.775Z,4.60
2023-05-11T23:31:38.806Z,3.90
2023-05-11T23:34:05.350Z,4.50
2023-05-11T23:36:31.881Z,4.50
2023-05-11T23:38:58.842Z,4.90
2023-05-11T23:41:25.376Z,4.90
2023-05-11T23:43:52.000Z,5.30
2023-05-11T23:46:19.055Z,4.80
2023-05-11T23:48:45.615Z,4.60
2023-05-11T23:51:12.372Z,5.20
2023-05-11T23:53:39.047Z,4.50
2023-05-11T23:56:06.098Z,5.10
2023-05-11T23:58:32.761Z,4.80
